sensor_id;sensor_type;location;lat;lon;timestamp;temperature;humidity
36458;DHT22;22480;50.546;12.292;2024-02-21T00:02:11;5.70;99.90
36458;DHT22;22480;50.546;12.292;2024-02-21T00:04:37;5.60;99.90
36458;DHT22;22480;50.546;12.292;2024-02-21T00:07:04;5.50;99.90
36458;DHT22;22480;50.546;12.292;2024-02-21T00:09:30;5.50;99.90
36458;DHT22;22480;50.546;12.292;2024-02-21T00:11:56;5.40;99.90
36458;DHT22;22480;50.546;12.292;2024-02-21T00:14:22;5.40;99.90
36458;DHT22;22480;50.546;12.292;2024-02-21T00:16:47;5.30;99.90
36458;DHT22;22480;50.546;12.292;2024-02-21T00:19:13;5.40;99.90
36458;DHT22;22480;50.546;12.292;2024-02-21T00:21:40;5.40;99.90
36458;DHT22;22480;50.546;12.292;2024-02-21T00:24:06;5.30;99.90
36458;DHT22;22480;50.546;12.292;2024-02-21T00:26:32;5.40;99.90
36458;DHT22;22480;50.546;12.292;2024-02-21T00:28:57;5.30;99.90
36458;DHT22;22480;50.546;12.292;2024-02-21T00:31:23;5.40;99.90
36458;DHT22;22480;50.546;12.292;2024-02-21T00:33:49;5.30;99.90
36458;DHT22;22480;50.546;12.292;2024-02-21T00:36:16;5.30;99.90
36458;DHT22;22480;50.546;12.292;2024-02-21T00:38:41;5.30;99.90
36458;DHT22;22480;50.546;12.292;2024-02-21T00:41:07;5.30;99.90
36458;DHT22;22480;50.546;12.292;2024-02-21T00:43:33;5.30;99.90
36458;DHT22;22480;50.546;12.292;2024-02-21T00:45:58;5.30;99.90
36458;DHT22;22480;50.546;12.292;2024-02-21T00:48:24;5.30;99.90
36458;DHT22;22480;50.546;12.292;2024-02-21T00:50:50;5.30;99.90
36458;DHT22;22480;50.546;12.292;2024-02-21T00:53:15;5.30;99.90
36458;DHT22;22480;50.546;12.292;2024-02-21T00:55:41;5.30;99.90
36458;DHT22;22480;50.546;12.292;2024-02-21T00:58:09;5.10;99.90
36458;DHT22;22480;50.546;12.292;2024-02-21T01:00:34;5.10;99.90
36458;DHT22;22480;50.546;12.292;2024-02-21T01:03:00;5.10;99.90
36458;DHT22;22480;50.546;12.292;2024-02-21T01:05:26;5.10;99.90
36458;DHT22;22480;50.546;12.292;2024-02-21T01:07:52;5.10;99.90
36458;DHT22;22480;50.546;12.292;2024-02-21T01:10:18;5.10;99.90
36458;DHT22;22480;50.546;12.292;2024-02-21T01:12:44;5.10;99.90
36458;DHT22;22480;50.546;12.292;2024-02-21T01:15:10;5.10;99.90
36458;DHT22;22480;50.546;12.292;2024-02-21T01:17:36;5.20;99.90
36458;DHT22;22480;50.546;12.292;2024-02-21T01:20:02;5.20;99.90
36458;DHT22;22480;50.546;12.292;2024-02-21T01:22:28;5.20;99.90
36458;DHT22;22480;50.546;12.292;2024-02-21T01:24:54;5.20;99.90
36458;DHT22;22480;50.546;12.292;2024-02-21T01:27:19;5.20;99.90
36458;DHT22;22480;50.546;12.292;2024-02-21T01:29:46;5.30;99.90
36458;DHT22;22480;50.546;12.292;2024-02-21T01:32:15;5.30;99.90
36458;DHT22;22480;50.546;12.292;2024-02-21T01:34:41;5.30;99.90
36458;DHT22;22480;50.546;12.292;2024-02-21T01:37:06;5.30;99.90
36458;DHT22;22480;50.546;12.292;2024-02-21T01:39:33;5.30;99.90
36458;DHT22;22480;50.546;12.292;2024-02-21T01:41:59;5.40;99.90
36458;DHT22;22480;50.546;12.292;2024-02-21T01:44:25;5.40;99.90
36458;DHT22;22480;50.546;12.292;2024-02-21T01:46:55;5.50;99.90
36458;DHT22;22480;50.546;12.292;2024-02-21T01:49:21;5.50;99.90
36458;DHT22;22480;50.546;12.292;2024-02-21T01:51:47;5.50;99.90
36458;DHT22;22480;50.546;12.292;2024-02-21T01:54:14;5.60;99.90
36458;DHT22;22480;50.546;12.292;2024-02-21T01:56:40;5.60;99.90
36458;DHT22;22480;50.546;12.292;2024-02-21T01:59:06;5.50;99.90
36458;DHT22;22480;50.546;12.292;2024-02-21T02:01:32;5.60;99.90
36458;DHT22;22480;50.546;12.292;2024-02-21T02:03:59;5.60;99.90
36458;DHT22;22480;50.546;12.292;2024-02-21T02:06:25;5.50;99.90
36458;DHT22;22480;50.546;12.292;2024-02-21T02:08:51;5.50;99.90
36458;DHT22;22480;50.546;12.292;2024-02-21T02:11:17;5.50;99.90
36458;DHT22;22480;50.546;12.292;2024-02-21T02:13:43;5.50;99.90
36458;DHT22;22480;50.546;12.292;2024-02-21T02:16:09;5.50;99.90
36458;DHT22;22480;50.546;12.292;2024-02-21T02:18:35;5.50;99.90
36458;DHT22;22480;50.546;12.292;2024-02-21T02:21:00;5.50;99.90
36458;DHT22;22480;50.546;12.292;2024-02-21T02:23:30;5.40;99.90
36458;DHT22;22480;50.546;12.292;2024-02-21T02:25:57;5.40;99.90
36458;DHT22;22480;50.546;12.292;2024-02-21T02:28:22;5.40;99.90
36458;DHT22;22480;50.546;12.292;2024-02-21T02:30:49;5.40;99.90
36458;DHT22;22480;50.546;12.292;2024-02-21T02:33:15;5.30;99.90
36458;DHT22;22480;50.546;12.292;2024-02-21T02:35:42;5.30;99.90
36458;DHT22;22480;50.546;12.292;2024-02-21T02:38:08;5.30;99.90
36458;DHT22;22480;50.546;12.292;2024-02-21T02:40:36;5.30;99.90
36458;DHT22;22480;50.546;12.292;2024-02-21T02:43:02;5.30;99.90
36458;DHT22;22480;50.546;12.292;2024-02-21T02:45:28;5.30;99.90
36458;DHT22;22480;50.546;12.292;2024-02-21T02:47:54;5.30;99.90
36458;DHT22;22480;50.546;12.292;2024-02-21T02:50:22;5.40;99.90
36458;DHT22;22480;50.546;12.292;2024-02-21T02:52:48;5.40;99.90
36458;DHT22;22480;50.546;12.292;2024-02-21T02:55:14;5.30;99.90
36458;DHT22;22480;50.546;12.292;2024-02-21T02:57:40;5.40;99.90
36458;DHT22;22480;50.546;12.292;2024-02-21T03:00:10;5.40;99.90
36458;DHT22;22480;50.546;12.292;2024-02-21T03:02:39;5.40;99.90
36458;DHT22;22480;50.546;12.292;2024-02-21T03:05:15;5.40;99.90
36458;DHT22;22480;50.546;12.292;2024-02-21T03:07:42;5.50;99.90
36458;DHT22;22480;50.546;12.292;2024-02-21T03:10:09;5.40;99.90
36458;DHT22;22480;50.546;12.292;2024-02-21T03:12:35;5.40;99.90
36458;DHT22;22480;50.546;12.292;2024-02-21T03:15:02;5.40;99.90
36458;DHT22;22480;50.546;12.292;2024-02-21T03:17:28;5.40;99.90
36458;DHT22;22480;50.546;12.292;2024-02-21T03:19:54;5.50;99.90
36458;DHT22;22480;50.546;12.292;2024-02-21T03:22:21;5.50;99.90
36458;DHT22;22480;50.546;12.292;2024-02-21T03:24:47;5.40;99.90
36458;DHT22;22480;50.546;12.292;2024-02-21T03:27:13;5.40;99.90
36458;DHT22;22480;50.546;12.292;2024-02-21T03:29:38;5.40;99.90
36458;DHT22;22480;50.546;12.292;2024-02-21T03:32:04;5.40;99.90
36458;DHT22;22480;50.546;12.292;2024-02-21T03:34:30;5.40;99.90
36458;DHT22;22480;50.546;12.292;2024-02-21T03:36:55;5.50;99.90
36458;DHT22;22480;50.546;12.292;2024-02-21T03:39:21;5.50;99.90
36458;DHT22;22480;50.546;12.292;2024-02-21T03:41:48;5.40;99.90
36458;DHT22;22480;50.546;12.292;2024-02-21T03:44:14;5.50;99.90
36458;DHT22;22480;50.546;12.292;2024-02-21T03:46:39;5.50;99.90
36458;DHT22;22480;50.546;12.292;2024-02-21T03:49:05;5.40;99.90
36458;DHT22;22480;50.546;12.292;2024-02-21T03:51:31;5.40;99.90
36458;DHT22;22480;50.546;12.292;2024-02-21T03:53:56;5.30;99.90
36458;DHT22;22480;50.546;12.292;2024-02-21T03:56:22;5.30;99.90
36458;DHT22;22480;50.546;12.292;2024-02-21T03:58:48;5.20;99.90
36458;DHT22;22480;50.546;12.292;2024-02-21T04:01:15;5.20;99.90
36458;DHT22;22480;50.546;12.292;2024-02-21T04:03:42;5.10;99.90
36458;DHT22;22480;50.546;12.292;2024-02-21T04:06:08;5.10;99.90
36458;DHT22;22480;50.546;12.292;2024-02-21T04:08:34;5.10;99.90
36458;DHT22;22480;50.546;12.292;2024-02-21T04:11:00;5.00;99.90
36458;DHT22;22480;50.546;12.292;2024-02-21T04:13:25;5.00;99.90
36458;DHT22;22480;50.546;12.292;2024-02-21T04:15:51;5.00;99.90
36458;DHT22;22480;50.546;12.292;2024-02-21T04:18:16;5.00;99.90
36458;DHT22;22480;50.546;12.292;2024-02-21T04:20:42;5.00;99.90
36458;DHT22;22480;50.546;12.292;2024-02-21T04:23:08;4.90;99.90
36458;DHT22;22480;50.546;12.292;2024-02-21T04:25:34;5.00;99.90
36458;DHT22;22480;50.546;12.292;2024-02-21T04:28:00;4.90;99.90
36458;DHT22;22480;50.546;12.292;2024-02-21T04:30:26;4.90;99.90
36458;DHT22;22480;50.546;12.292;2024-02-21T04:32:51;4.90;99.90
36458;DHT22;22480;50.546;12.292;2024-02-21T04:35:17;4.90;99.90
36458;DHT22;22480;50.546;12.292;2024-02-21T04:37:43;4.90;99.90
36458;DHT22;22480;50.546;12.292;2024-02-21T04:40:10;4.90;99.90
36458;DHT22;22480;50.546;12.292;2024-02-21T04:42:36;4.90;99.90
36458;DHT22;22480;50.546;12.292;2024-02-21T04:45:02;4.90;99.90
36458;DHT22;22480;50.546;12.292;2024-02-21T04:47:28;4.90;99.90
36458;DHT22;22480;50.546;12.292;2024-02-21T04:49:54;4.90;99.90
36458;DHT22;22480;50.546;12.292;2024-02-21T04:52:19;4.90;99.90
36458;DHT22;22480;50.546;12.292;2024-02-21T04:54:45;4.90;99.90
36458;DHT22;22480;50.546;12.292;2024-02-21T04:57:11;4.90;99.90
36458;DHT22;22480;50.546;12.292;2024-02-21T04:59:36;4.90;99.90
36458;DHT22;22480;50.546;12.292;2024-02-21T05:02:02;4.90;99.90
36458;DHT22;22480;50.546;12.292;2024-02-21T05:04:28;4.90;99.90
36458;DHT22;22480;50.546;12.292;2024-02-21T05:06:54;4.90;99.90
36458;DHT22;22480;50.546;12.292;2024-02-21T05:09:20;4.90;99.90
36458;DHT22;22480;50.546;12.292;2024-02-21T05:11:46;4.90;99.90
36458;DHT22;22480;50.546;12.292;2024-02-21T05:14:13;4.90;99.90
36458;DHT22;22480;50.546;12.292;2024-02-21T05:16:39;4.80;99.90
36458;DHT22;22480;50.546;12.292;2024-02-21T05:19:05;4.90;99.90
36458;DHT22;22480;50.546;12.292;2024-02-21T05:21:31;4.90;99.90
36458;DHT22;22480;50.546;12.292;2024-02-21T05:23:56;4.90;99.90
36458;DHT22;22480;50.546;12.292;2024-02-21T05:26:23;4.90;99.90
36458;DHT22;22480;50.546;12.292;2024-02-21T05:28:49;5.00;99.90
36458;DHT22;22480;50.546;12.292;2024-02-21T05:31:18;5.00;99.90
36458;DHT22;22480;50.546;12.292;2024-02-21T05:33:45;5.00;99.90
36458;DHT22;22480;50.546;12.292;2024-02-21T05:36:12;5.00;99.90
36458;DHT22;22480;50.546;12.292;2024-02-21T05:38:38;5.10;99.90
36458;DHT22;22480;50.546;12.292;2024-02-21T05:41:04;5.10;99.90
36458;DHT22;22480;50.546;12.292;2024-02-21T05:43:29;5.20;99.90
36458;DHT22;22480;50.546;12.292;2024-02-21T05:45:55;5.20;99.90
36458;DHT22;22480;50.546;12.292;2024-02-21T05:48:22;5.20;99.90
36458;DHT22;22480;50.546;12.292;2024-02-21T05:50:48;5.20;99.90
36458;DHT22;22480;50.546;12.292;2024-02-21T05:53:14;5.20;99.90
36458;DHT22;22480;50.546;12.292;2024-02-21T05:55:40;5.20;99.90
36458;DHT22;22480;50.546;12.292;2024-02-21T05:58:06;5.30;99.90
36458;DHT22;22480;50.546;12.292;2024-02-21T06:00:32;5.30;99.90
36458;DHT22;22480;50.546;12.292;2024-02-21T06:02:58;5.30;99.90
36458;DHT22;22480;50.546;12.292;2024-02-21T06:05:24;5.30;99.90
36458;DHT22;22480;50.546;12.292;2024-02-21T06:07:50;5.30;99.90
36458;DHT22;22480;50.546;12.292;2024-02-21T06:10:16;5.30;99.90
36458;DHT22;22480;50.546;12.292;2024-02-21T06:12:42;5.40;99.90
36458;DHT22;22480;50.546;12.292;2024-02-21T06:15:08;5.30;99.90
36458;DHT22;22480;50.546;12.292;2024-02-21T06:17:33;5.40;99.90
36458;DHT22;22480;50.546;12.292;2024-02-21T06:19:59;5.40;99.90
36458;DHT22;22480;50.546;12.292;2024-02-21T06:22:25;5.40;99.90
36458;DHT22;22480;50.546;12.292;2024-02-21T06:24:50;5.40;99.90
36458;DHT22;22480;50.546;12.292;2024-02-21T06:27:16;5.40;99.90
36458;DHT22;22480;50.546;12.292;2024-02-21T06:29:42;5.40;99.90
36458;DHT22;22480;50.546;12.292;2024-02-21T06:32:08;5.40;99.90
36458;DHT22;22480;50.546;12.292;2024-02-21T06:34:34;5.40;99.90
36458;DHT22;22480;50.546;12.292;2024-02-21T06:36:59;5.40;99.90
36458;DHT22;22480;50.546;12.292;2024-02-21T06:39:25;5.40;99.90
36458;DHT22;22480;50.546;12.292;2024-02-21T06:41:51;5.50;99.90
36458;DHT22;22480;50.546;12.292;2024-02-21T06:44:18;5.40;99.90
36458;DHT22;22480;50.546;12.292;2024-02-21T06:46:44;5.50;99.90
36458;DHT22;22480;50.546;12.292;2024-02-21T06:49:09;5.50;99.90
36458;DHT22;22480;50.546;12.292;2024-02-21T06:51:42;5.50;99.90
36458;DHT22;22480;50.546;12.292;2024-02-21T06:54:08;5.50;99.90
36458;DHT22;22480;50.546;12.292;2024-02-21T06:56:35;5.50;99.90
36458;DHT22;22480;50.546;12.292;2024-02-21T06:59:01;5.50;99.90
36458;DHT22;22480;50.546;12.292;2024-02-21T07:01:31;5.60;99.90
36458;DHT22;22480;50.546;12.292;2024-02-21T07:03:57;5.50;99.90
36458;DHT22;22480;50.546;12.292;2024-02-21T07:06:22;5.60;99.90
36458;DHT22;22480;50.546;12.292;2024-02-21T07:08:48;5.50;99.90
36458;DHT22;22480;50.546;12.292;2024-02-21T07:11:14;5.60;99.90
36458;DHT22;22480;50.546;12.292;2024-02-21T07:13:40;5.60;99.90
36458;DHT22;22480;50.546;12.292;2024-02-21T07:16:06;5.60;99.90
36458;DHT22;22480;50.546;12.292;2024-02-21T07:18:32;5.60;99.90
36458;DHT22;22480;50.546;12.292;2024-02-21T07:20:58;5.60;99.90
36458;DHT22;22480;50.546;12.292;2024-02-21T07:23:24;5.70;99.90
36458;DHT22;22480;50.546;12.292;2024-02-21T07:25:50;5.80;99.90
36458;DHT22;22480;50.546;12.292;2024-02-21T07:28:16;5.80;99.90
36458;DHT22;22480;50.546;12.292;2024-02-21T07:30:42;5.90;99.90
36458;DHT22;22480;50.546;12.292;2024-02-21T07:33:08;6.00;99.90
36458;DHT22;22480;50.546;12.292;2024-02-21T07:35:35;6.10;99.90
36458;DHT22;22480;50.546;12.292;2024-02-21T07:38:04;6.00;99.90
36458;DHT22;22480;50.546;12.292;2024-02-21T07:40:31;6.20;99.90
36458;DHT22;22480;50.546;12.292;2024-02-21T07:42:56;6.30;99.90
36458;DHT22;22480;50.546;12.292;2024-02-21T07:45:22;6.20;99.90
36458;DHT22;22480;50.546;12.292;2024-02-21T07:47:50;6.20;99.90
36458;DHT22;22480;50.546;12.292;2024-02-21T07:50:16;6.10;99.90
36458;DHT22;22480;50.546;12.292;2024-02-21T07:52:42;6.10;99.90
36458;DHT22;22480;50.546;12.292;2024-02-21T07:55:08;6.20;99.90
36458;DHT22;22480;50.546;12.292;2024-02-21T07:57:36;6.20;99.90
36458;DHT22;22480;50.546;12.292;2024-02-21T08:00:02;6.20;99.90
36458;DHT22;22480;50.546;12.292;2024-02-21T08:02:38;6.20;99.90
36458;DHT22;22480;50.546;12.292;2024-02-21T08:05:03;6.30;99.90
36458;DHT22;22480;50.546;12.292;2024-02-21T08:07:29;6.20;99.90
36458;DHT22;22480;50.546;12.292;2024-02-21T08:09:56;6.10;99.90
36458;DHT22;22480;50.546;12.292;2024-02-21T08:12:22;6.20;99.90
36458;DHT22;22480;50.546;12.292;2024-02-21T08:14:48;6.10;99.90
36458;DHT22;22480;50.546;12.292;2024-02-21T08:17:13;6.10;99.90
36458;DHT22;22480;50.546;12.292;2024-02-21T08:19:39;6.10;99.90
36458;DHT22;22480;50.546;12.292;2024-02-21T08:22:05;6.00;99.90
36458;DHT22;22480;50.546;12.292;2024-02-21T08:24:31;5.90;99.90
36458;DHT22;22480;50.546;12.292;2024-02-21T08:26:57;6.00;99.90
36458;DHT22;22480;50.546;12.292;2024-02-21T08:29:22;6.10;99.90
36458;DHT22;22480;50.546;12.292;2024-02-21T08:31:48;6.20;99.90
36458;DHT22;22480;50.546;12.292;2024-02-21T08:34:14;6.30;99.90
36458;DHT22;22480;50.546;12.292;2024-02-21T08:36:40;6.40;99.90
36458;DHT22;22480;50.546;12.292;2024-02-21T08:39:06;6.50;99.90
36458;DHT22;22480;50.546;12.292;2024-02-21T08:41:32;6.50;99.90
36458;DHT22;22480;50.546;12.292;2024-02-21T08:43:59;6.60;99.90
36458;DHT22;22480;50.546;12.292;2024-02-21T08:46:24;6.90;99.90
36458;DHT22;22480;50.546;12.292;2024-02-21T08:48:51;7.10;99.90
36458;DHT22;22480;50.546;12.292;2024-02-21T08:51:17;7.10;99.90
36458;DHT22;22480;50.546;12.292;2024-02-21T08:53:46;7.30;99.90
36458;DHT22;22480;50.546;12.292;2024-02-21T08:56:12;7.30;99.90
36458;DHT22;22480;50.546;12.292;2024-02-21T08:58:39;7.10;99.90
36458;DHT22;22480;50.546;12.292;2024-02-21T09:01:05;6.90;99.90
36458;DHT22;22480;50.546;12.292;2024-02-21T09:03:33;6.80;99.90
36458;DHT22;22480;50.546;12.292;2024-02-21T09:06:01;6.90;99.90
36458;DHT22;22480;50.546;12.292;2024-02-21T09:08:27;7.00;99.90
36458;DHT22;22480;50.546;12.292;2024-02-21T09:10:53;7.10;99.90
36458;DHT22;22480;50.546;12.292;2024-02-21T09:13:19;7.20;99.90
36458;DHT22;22480;50.546;12.292;2024-02-21T09:15:45;7.30;99.90
36458;DHT22;22480;50.546;12.292;2024-02-21T09:18:10;7.40;99.90
36458;DHT22;22480;50.546;12.292;2024-02-21T09:20:36;7.60;99.90
36458;DHT22;22480;50.546;12.292;2024-02-21T09:23:02;7.60;99.90
36458;DHT22;22480;50.546;12.292;2024-02-21T09:25:27;7.50;99.90
36458;DHT22;22480;50.546;12.292;2024-02-21T09:27:54;7.50;99.90
36458;DHT22;22480;50.546;12.292;2024-02-21T09:30:20;7.50;99.90
36458;DHT22;22480;50.546;12.292;2024-02-21T09:32:46;7.80;99.90
36458;DHT22;22480;50.546;12.292;2024-02-21T09:35:12;7.80;99.90
36458;DHT22;22480;50.546;12.292;2024-02-21T09:37:39;7.80;99.90
36458;DHT22;22480;50.546;12.292;2024-02-21T09:40:05;8.00;99.90
36458;DHT22;22480;50.546;12.292;2024-02-21T09:42:37;8.20;99.90
36458;DHT22;22480;50.546;12.292;2024-02-21T09:45:08;8.40;99.90
36458;DHT22;22480;50.546;12.292;2024-02-21T09:47:50;8.50;99.90
36458;DHT22;22480;50.546;12.292;2024-02-21T09:50:17;8.50;99.90
36458;DHT22;22480;50.546;12.292;2024-02-21T09:52:44;8.50;99.90
36458;DHT22;22480;50.546;12.292;2024-02-21T09:55:10;8.60;99.90
36458;DHT22;22480;50.546;12.292;2024-02-21T09:57:39;8.70;99.90
36458;DHT22;22480;50.546;12.292;2024-02-21T10:00:05;9.10;99.90
36458;DHT22;22480;50.546;12.292;2024-02-21T10:02:39;9.90;99.90
36458;DHT22;22480;50.546;12.292;2024-02-21T10:05:05;10.60;99.90
36458;DHT22;22480;50.546;12.292;2024-02-21T10:07:34;11.10;99.90
36458;DHT22;22480;50.546;12.292;2024-02-21T10:10:05;11.10;99.90
36458;DHT22;22480;50.546;12.292;2024-02-21T10:12:31;11.20;99.90
36458;DHT22;22480;50.546;12.292;2024-02-21T10:15:04;11.40;99.90
36458;DHT22;22480;50.546;12.292;2024-02-21T10:17:32;11.20;99.90
36458;DHT22;22480;50.546;12.292;2024-02-21T10:20:10;11.30;99.90
36458;DHT22;22480;50.546;12.292;2024-02-21T10:22:38;11.20;99.90
36458;DHT22;22480;50.546;12.292;2024-02-21T10:25:12;11.10;99.90
36458;DHT22;22480;50.546;12.292;2024-02-21T10:27:41;11.10;99.90
36458;DHT22;22480;50.546;12.292;2024-02-21T10:30:14;11.30;99.90
36458;DHT22;22480;50.546;12.292;2024-02-21T10:32:56;11.50;99.80
36458;DHT22;22480;50.546;12.292;2024-02-21T10:35:27;11.50;99.90
36458;DHT22;22480;50.546;12.292;2024-02-21T10:37:54;11.80;99.90
36458;DHT22;22480;50.546;12.292;2024-02-21T10:40:25;12.00;96.50
36458;DHT22;22480;50.546;12.292;2024-02-21T10:42:56;12.00;96.90
36458;DHT22;22480;50.546;12.292;2024-02-21T10:47:56;11.50;99.50
36458;DHT22;22480;50.546;12.292;2024-02-21T10:50:25;11.60;98.30
36458;DHT22;22480;50.546;12.292;2024-02-21T10:53:07;11.70;97.10
36458;DHT22;22480;50.546;12.292;2024-02-21T10:55:41;11.50;97.20
36458;DHT22;22480;50.546;12.292;2024-02-21T10:58:09;11.30;98.30
36458;DHT22;22480;50.546;12.292;2024-02-21T11:00:36;11.60;98.70
36458;DHT22;22480;50.546;12.292;2024-02-21T11:03:03;11.30;96.80
36458;DHT22;22480;50.546;12.292;2024-02-21T11:05:29;11.30;95.40
36458;DHT22;22480;50.546;12.292;2024-02-21T11:07:55;11.40;96.60
36458;DHT22;22480;50.546;12.292;2024-02-21T11:10:25;11.40;97.90
36458;DHT22;22480;50.546;12.292;2024-02-21T11:13:09;11.80;96.60
36458;DHT22;22480;50.546;12.292;2024-02-21T11:15:35;12.20;94.60
36458;DHT22;22480;50.546;12.292;2024-02-21T11:18:01;12.20;94.30
36458;DHT22;22480;50.546;12.292;2024-02-21T11:20:34;12.40;93.00
36458;DHT22;22480;50.546;12.292;2024-02-21T11:23:00;12.70;94.10
36458;DHT22;22480;50.546;12.292;2024-02-21T11:25:29;12.70;92.30
36458;DHT22;22480;50.546;12.292;2024-02-21T11:28:04;12.50;90.10
36458;DHT22;22480;50.546;12.292;2024-02-21T11:30:31;12.70;91.80
36458;DHT22;22480;50.546;12.292;2024-02-21T11:33:02;12.30;91.90
36458;DHT22;22480;50.546;12.292;2024-02-21T11:35:35;12.40;91.80
36458;DHT22;22480;50.546;12.292;2024-02-21T11:38:11;12.50;91.10
36458;DHT22;22480;50.546;12.292;2024-02-21T11:40:40;12.20;90.70
36458;DHT22;22480;50.546;12.292;2024-02-21T11:43:07;12.10;91.50
36458;DHT22;22480;50.546;12.292;2024-02-21T11:45:33;12.00;93.20
36458;DHT22;22480;50.546;12.292;2024-02-21T11:47:59;12.00;91.30
36458;DHT22;22480;50.546;12.292;2024-02-21T11:50:30;12.10;91.20
36458;DHT22;22480;50.546;12.292;2024-02-21T11:52:56;12.20;91.50
36458;DHT22;22480;50.546;12.292;2024-02-21T11:55:22;12.20;91.60
36458;DHT22;22480;50.546;12.292;2024-02-21T11:57:48;12.30;91.80
36458;DHT22;22480;50.546;12.292;2024-02-21T12:00:15;12.10;92.20
36458;DHT22;22480;50.546;12.292;2024-02-21T12:02:43;11.70;93.00
36458;DHT22;22480;50.546;12.292;2024-02-21T12:05:09;11.80;94.80
36458;DHT22;22480;50.546;12.292;2024-02-21T12:07:36;12.00;94.70
36458;DHT22;22480;50.546;12.292;2024-02-21T12:10:08;11.90;91.60
36458;DHT22;22480;50.546;12.292;2024-02-21T12:12:35;11.70;92.10
36458;DHT22;22480;50.546;12.292;2024-02-21T12:15:04;11.70;92.30
36458;DHT22;22480;50.546;12.292;2024-02-21T12:17:32;11.60;93.40
36458;DHT22;22480;50.546;12.292;2024-02-21T12:19:59;11.60;93.20
36458;DHT22;22480;50.546;12.292;2024-02-21T12:22:25;11.60;93.70
36458;DHT22;22480;50.546;12.292;2024-02-21T12:24:51;11.60;93.30
36458;DHT22;22480;50.546;12.292;2024-02-21T12:27:17;11.70;93.30
36458;DHT22;22480;50.546;12.292;2024-02-21T12:29:42;12.00;92.30
36458;DHT22;22480;50.546;12.292;2024-02-21T12:32:08;12.30;92.10
36458;DHT22;22480;50.546;12.292;2024-02-21T12:34:34;12.20;89.50
36458;DHT22;22480;50.546;12.292;2024-02-21T12:37:02;11.90;89.60
36458;DHT22;22480;50.546;12.292;2024-02-21T12:39:28;11.60;90.90
36458;DHT22;22480;50.546;12.292;2024-02-21T12:41:54;11.80;92.00
36458;DHT22;22480;50.546;12.292;2024-02-21T12:44:22;12.10;92.90
36458;DHT22;22480;50.546;12.292;2024-02-21T12:46:48;12.50;92.40
36458;DHT22;22480;50.546;12.292;2024-02-21T12:49:18;12.50;89.70
36458;DHT22;22480;50.546;12.292;2024-02-21T12:51:44;12.40;91.10
36458;DHT22;22480;50.546;12.292;2024-02-21T12:54:12;12.50;90.20
36458;DHT22;22480;50.546;12.292;2024-02-21T12:56:38;12.30;91.70
36458;DHT22;22480;50.546;12.292;2024-02-21T12:59:05;12.30;91.30
36458;DHT22;22480;50.546;12.292;2024-02-21T13:01:35;11.90;90.30
36458;DHT22;22480;50.546;12.292;2024-02-21T13:04:01;12.10;90.60
36458;DHT22;22480;50.546;12.292;2024-02-21T13:06:27;12.10;92.00
36458;DHT22;22480;50.546;12.292;2024-02-21T13:08:53;12.10;89.20
36458;DHT22;22480;50.546;12.292;2024-02-21T13:11:19;12.10;90.80
36458;DHT22;22480;50.546;12.292;2024-02-21T13:13:45;12.00;91.40
36458;DHT22;22480;50.546;12.292;2024-02-21T13:16:10;12.00;90.30
36458;DHT22;22480;50.546;12.292;2024-02-21T13:18:36;12.10;90.60
36458;DHT22;22480;50.546;12.292;2024-02-21T13:21:05;11.90;90.70
36458;DHT22;22480;50.546;12.292;2024-02-21T13:23:31;12.00;90.20
36458;DHT22;22480;50.546;12.292;2024-02-21T13:25:58;12.30;90.30
36458;DHT22;22480;50.546;12.292;2024-02-21T13:28:24;12.20;88.90
36458;DHT22;22480;50.546;12.292;2024-02-21T13:30:49;12.20;89.70
36458;DHT22;22480;50.546;12.292;2024-02-21T13:33:16;12.30;89.60
36458;DHT22;22480;50.546;12.292;2024-02-21T13:35:41;12.10;90.70
36458;DHT22;22480;50.546;12.292;2024-02-21T13:38:07;12.40;91.50
36458;DHT22;22480;50.546;12.292;2024-02-21T13:40:33;12.80;89.80
36458;DHT22;22480;50.546;12.292;2024-02-21T13:42:58;13.00;84.30
36458;DHT22;22480;50.546;12.292;2024-02-21T13:45:24;12.60;84.30
36458;DHT22;22480;50.546;12.292;2024-02-21T13:47:50;12.70;90.30
36458;DHT22;22480;50.546;12.292;2024-02-21T13:50:15;12.70;86.50
36458;DHT22;22480;50.546;12.292;2024-02-21T13:52:41;12.60;87.20
36458;DHT22;22480;50.546;12.292;2024-02-21T13:55:07;12.40;88.20
36458;DHT22;22480;50.546;12.292;2024-02-21T13:57:36;12.60;88.70
36458;DHT22;22480;50.546;12.292;2024-02-21T14:00:03;12.80;87.20
36458;DHT22;22480;50.546;12.292;2024-02-21T14:02:37;12.80;86.50
36458;DHT22;22480;50.546;12.292;2024-02-21T14:05:04;12.70;85.50
36458;DHT22;22480;50.546;12.292;2024-02-21T14:07:32;12.30;85.60
36458;DHT22;22480;50.546;12.292;2024-02-21T14:09:59;11.90;90.70
36458;DHT22;22480;50.546;12.292;2024-02-21T14:12:24;11.80;91.00
36458;DHT22;22480;50.546;12.292;2024-02-21T14:14:50;11.20;91.80
36458;DHT22;22480;50.546;12.292;2024-02-21T14:17:18;10.90;94.10
36458;DHT22;22480;50.546;12.292;2024-02-21T14:19:43;10.60;93.30
36458;DHT22;22480;50.546;12.292;2024-02-21T14:22:09;10.20;96.20
36458;DHT22;22480;50.546;12.292;2024-02-21T14:24:37;10.00;99.10
36458;DHT22;22480;50.546;12.292;2024-02-21T14:27:03;9.90;99.90
36458;DHT22;22480;50.546;12.292;2024-02-21T14:29:29;9.80;99.90
36458;DHT22;22480;50.546;12.292;2024-02-21T14:31:55;9.70;99.90
36458;DHT22;22480;50.546;12.292;2024-02-21T14:34:20;9.70;99.90
36458;DHT22;22480;50.546;12.292;2024-02-21T14:36:46;9.70;99.90
36458;DHT22;22480;50.546;12.292;2024-02-21T14:39:12;9.80;99.90
36458;DHT22;22480;50.546;12.292;2024-02-21T14:41:37;9.80;99.90
36458;DHT22;22480;50.546;12.292;2024-02-21T14:44:05;9.80;99.90
36458;DHT22;22480;50.546;12.292;2024-02-21T14:46:31;10.00;99.90
36458;DHT22;22480;50.546;12.292;2024-02-21T14:48:57;10.00;99.90
36458;DHT22;22480;50.546;12.292;2024-02-21T14:51:23;10.00;99.90
36458;DHT22;22480;50.546;12.292;2024-02-21T14:53:49;10.00;99.90
36458;DHT22;22480;50.546;12.292;2024-02-21T15:00:02;10.30;99.90
36458;DHT22;22480;50.546;12.292;2024-02-21T15:02:32;10.50;99.90
36458;DHT22;22480;50.546;12.292;2024-02-21T15:04:58;10.70;99.90
36458;DHT22;22480;50.546;12.292;2024-02-21T15:07:23;10.50;99.90
36458;DHT22;22480;50.546;12.292;2024-02-21T15:09:50;10.30;99.90
36458;DHT22;22480;50.546;12.292;2024-02-21T15:12:16;10.00;99.90
36458;DHT22;22480;50.546;12.292;2024-02-21T15:14:42;9.70;99.90
36458;DHT22;22480;50.546;12.292;2024-02-21T15:17:12;9.50;99.90
36458;DHT22;22480;50.546;12.292;2024-02-21T15:19:38;9.40;99.90
36458;DHT22;22480;50.546;12.292;2024-02-21T15:22:09;9.20;99.90
36458;DHT22;22480;50.546;12.292;2024-02-21T15:24:38;9.10;99.90
36458;DHT22;22480;50.546;12.292;2024-02-21T15:27:03;9.00;99.90
36458;DHT22;22480;50.546;12.292;2024-02-21T15:29:29;8.90;99.90
36458;DHT22;22480;50.546;12.292;2024-02-21T15:31:55;8.80;99.90